sensor_id;sensor_type;location;lat;lon;timestamp;temperature;humidity
52181;DHT22;38158;53.338;6.514;2022-11-15T00:00:51;7.60;99.90
52181;DHT22;38158;53.338;6.514;2022-11-15T00:03:18;7.60;99.90
52181;DHT22;38158;53.338;6.514;2022-11-15T00:05:44;7.60;99.90
52181;DHT22;38158;53.338;6.514;2022-11-15T00:08:10;7.60;99.90
52181;DHT22;38158;53.338;6.514;2022-11-15T00:10:37;7.60;99.90
52181;DHT22;38158;53.338;6.514;2022-11-15T00:13:09;7.60;99.90
52181;DHT22;38158;53.338;6.514;2022-11-15T00:15:40;7.60;99.90
52181;DHT22;38158;53.338;6.514;2022-11-15T00:18:10;7.60;99.90
52181;DHT22;38158;53.338;6.514;2022-11-15T00:20:37;7.60;99.90
52181;DHT22;38158;53.338;6.514;2022-11-15T00:23:05;7.60;99.90
52181;DHT22;38158;53.338;6.514;2022-11-15T00:25:32;7.60;99.90
52181;DHT22;38158;53.338;6.514;2022-11-15T00:27:59;7.60;99.90
52181;DHT22;38158;53.338;6.514;2022-11-15T00:30:25;7.60;99.90
52181;DHT22;38158;53.338;6.514;2022-11-15T00:32:51;7.50;99.90
52181;DHT22;38158;53.338;6.514;2022-11-15T00:35:17;7.50;99.90
52181;DHT22;38158;53.338;6.514;2022-11-15T00:37:42;7.40;99.90
52181;DHT22;38158;53.338;6.514;2022-11-15T00:40:09;7.30;99.90
52181;DHT22;38158;53.338;6.514;2022-11-15T00:42:35;7.20;99.90
52181;DHT22;38158;53.338;6.514;2022-11-15T00:45:00;7.10;99.90
52181;DHT22;38158;53.338;6.514;2022-11-15T00:47:26;7.10;99.90
52181;DHT22;38158;53.338;6.514;2022-11-15T00:49:52;7.00;99.90
52181;DHT22;38158;53.338;6.514;2022-11-15T00:52:17;7.00;99.90
52181;DHT22;38158;53.338;6.514;2022-11-15T00:54:43;6.90;99.90
52181;DHT22;38158;53.338;6.514;2022-11-15T00:57:08;6.90;99.90
52181;DHT22;38158;53.338;6.514;2022-11-15T00:59:34;6.80;99.90
52181;DHT22;38158;53.338;6.514;2022-11-15T01:02:00;6.80;99.90
52181;DHT22;38158;53.338;6.514;2022-11-15T01:04:26;6.90;99.90
52181;DHT22;38158;53.338;6.514;2022-11-15T01:06:52;6.90;99.90
52181;DHT22;38158;53.338;6.514;2022-11-15T01:09:17;6.80;99.90
52181;DHT22;38158;53.338;6.514;2022-11-15T01:11:43;6.80;99.90
52181;DHT22;38158;53.338;6.514;2022-11-15T01:14:09;6.80;99.90
52181;DHT22;38158;53.338;6.514;2022-11-15T01:16:34;6.80;99.90
52181;DHT22;38158;53.338;6.514;2022-11-15T01:19:00;6.90;99.90
52181;DHT22;38158;53.338;6.514;2022-11-15T01:21:26;6.90;99.90
52181;DHT22;38158;53.338;6.514;2022-11-15T01:23:56;7.00;99.90
52181;DHT22;38158;53.338;6.514;2022-11-15T01:26:22;6.90;99.90
52181;DHT22;38158;53.338;6.514;2022-11-15T01:28:48;7.00;99.90
52181;DHT22;38158;53.338;6.514;2022-11-15T01:31:19;7.00;99.90
52181;DHT22;38158;53.338;6.514;2022-11-15T01:33:45;6.90;99.90
52181;DHT22;38158;53.338;6.514;2022-11-15T01:36:14;6.90;99.90
52181;DHT22;38158;53.338;6.514;2022-11-15T01:38:40;7.00;99.90
52181;DHT22;38158;53.338;6.514;2022-11-15T01:41:06;6.90;99.90
52181;DHT22;38158;53.338;6.514;2022-11-15T01:43:34;6.90;99.90
52181;DHT22;38158;53.338;6.514;2022-11-15T01:48:46;6.80;99.90
52181;DHT22;38158;53.338;6.514;2022-11-15T01:51:15;6.80;99.90
52181;DHT22;38158;53.338;6.514;2022-11-15T01:53:44;6.90;99.90
52181;DHT22;38158;53.338;6.514;2022-11-15T01:56:15;6.90;99.90
52181;DHT22;38158;53.338;6.514;2022-11-15T01:58:42;6.90;99.90
52181;DHT22;38158;53.338;6.514;2022-11-15T02:01:10;6.90;99.90
52181;DHT22;38158;53.338;6.514;2022-11-15T02:03:56;7.00;99.90
52181;DHT22;38158;53.338;6.514;2022-11-15T02:06:23;7.00;99.90
52181;DHT22;38158;53.338;6.514;2022-11-15T02:08:50;7.00;99.90
52181;DHT22;38158;53.338;6.514;2022-11-15T02:11:16;7.00;99.90
52181;DHT22;38158;53.338;6.514;2022-11-15T02:13:42;7.40;99.90
52181;DHT22;38158;53.338;6.514;2022-11-15T02:19:10;7.00;99.90
52181;DHT22;38158;53.338;6.514;2022-11-15T02:21:50;7.00;99.90
52181;DHT22;38158;53.338;6.514;2022-11-15T02:30:23;7.10;99.90
52181;DHT22;38158;53.338;6.514;2022-11-15T02:33:00;7.10;99.90
52181;DHT22;38158;53.338;6.514;2022-11-15T02:35:43;7.10;99.90
52181;DHT22;38158;53.338;6.514;2022-11-15T02:43:35;7.10;99.90
52181;DHT22;38158;53.338;6.514;2022-11-15T02:46:45;7.10;99.90
52181;DHT22;38158;53.338;6.514;2022-11-15T02:49:33;7.10;99.90
52181;DHT22;38158;53.338;6.514;2022-11-15T02:52:00;7.10;99.90
52181;DHT22;38158;53.338;6.514;2022-11-15T02:54:29;7.10;99.90
52181;DHT22;38158;53.338;6.514;2022-11-15T02:57:00;7.10;99.90
52181;DHT22;38158;53.338;6.514;2022-11-15T03:04:53;7.10;99.90
52181;DHT22;38158;53.338;6.514;2022-11-15T03:10:18;7.10;99.90
52181;DHT22;38158;53.338;6.514;2022-11-15T03:12:54;7.10;99.90
52181;DHT22;38158;53.338;6.514;2022-11-15T03:15:32;7.10;99.90
52181;DHT22;38158;53.338;6.514;2022-11-15T03:18:02;7.10;99.90
52181;DHT22;38158;53.338;6.514;2022-11-15T03:20:30;7.20;99.90
52181;DHT22;38158;53.338;6.514;2022-11-15T03:23:01;7.60;99.90
52181;DHT22;38158;53.338;6.514;2022-11-15T03:25:29;7.10;99.90
52181;DHT22;38158;53.338;6.514;2022-11-15T03:27:59;7.10;99.90
52181;DHT22;38158;53.338;6.514;2022-11-15T03:30:27;7.10;99.90
52181;DHT22;38158;53.338;6.514;2022-11-15T03:32:57;7.20;99.90
52181;DHT22;38158;53.338;6.514;2022-11-15T03:35:26;7.10;99.90
52181;DHT22;38158;53.338;6.514;2022-11-15T03:38:22;7.10;99.90
52181;DHT22;38158;53.338;6.514;2022-11-15T03:40:54;7.20;99.90
52181;DHT22;38158;53.338;6.514;2022-11-15T03:43:51;7.20;99.90
52181;DHT22;38158;53.338;6.514;2022-11-15T03:46:28;7.20;99.90
52181;DHT22;38158;53.338;6.514;2022-11-15T03:49:08;7.20;99.90
52181;DHT22;38158;53.338;6.514;2022-11-15T03:51:35;7.20;99.90
52181;DHT22;38158;53.338;6.514;2022-11-15T03:54:06;7.20;99.90
52181;DHT22;38158;53.338;6.514;2022-11-15T03:56:31;7.20;99.90
52181;DHT22;38158;53.338;6.514;2022-11-15T03:58:57;7.20;99.90
52181;DHT22;38158;53.338;6.514;2022-11-15T04:01:23;7.30;99.90
52181;DHT22;38158;53.338;6.514;2022-11-15T04:03:49;7.30;99.90
52181;DHT22;38158;53.338;6.514;2022-11-15T04:06:15;7.30;99.90
52181;DHT22;38158;53.338;6.514;2022-11-15T04:08:40;7.40;99.90
52181;DHT22;38158;53.338;6.514;2022-11-15T04:11:06;7.30;99.90
52181;DHT22;38158;53.338;6.514;2022-11-15T04:13:31;7.30;99.90
52181;DHT22;38158;53.338;6.514;2022-11-15T04:15:57;7.30;99.90
52181;DHT22;38158;53.338;6.514;2022-11-15T04:18:23;7.30;99.90
52181;DHT22;38158;53.338;6.514;2022-11-15T04:20:49;7.50;99.90
52181;DHT22;38158;53.338;6.514;2022-11-15T04:23:34;7.40;99.90
52181;DHT22;38158;53.338;6.514;2022-11-15T04:26:20;7.50;99.90
52181;DHT22;38158;53.338;6.514;2022-11-15T04:28:47;7.40;99.90
52181;DHT22;38158;53.338;6.514;2022-11-15T04:31:31;7.40;99.90
52181;DHT22;38158;53.338;6.514;2022-11-15T04:33:57;7.50;99.90
52181;DHT22;38158;53.338;6.514;2022-11-15T04:36:23;7.50;99.90
52181;DHT22;38158;53.338;6.514;2022-11-15T04:39:07;7.50;99.90
52181;DHT22;38158;53.338;6.514;2022-11-15T04:41:33;7.50;99.90
52181;DHT22;38158;53.338;6.514;2022-11-15T04:43:59;7.50;99.90
52181;DHT22;38158;53.338;6.514;2022-11-15T04:46:25;7.50;99.90
52181;DHT22;38158;53.338;6.514;2022-11-15T04:48:52;7.60;99.90
52181;DHT22;38158;53.338;6.514;2022-11-15T04:51:18;7.50;99.90
52181;DHT22;38158;53.338;6.514;2022-11-15T04:53:44;7.60;99.90
52181;DHT22;38158;53.338;6.514;2022-11-15T04:56:10;7.50;99.90
52181;DHT22;38158;53.338;6.514;2022-11-15T04:58:35;7.60;99.90
52181;DHT22;38158;53.338;6.514;2022-11-15T05:01:08;7.50;99.90
52181;DHT22;38158;53.338;6.514;2022-11-15T05:03:34;7.60;99.90
52181;DHT22;38158;53.338;6.514;2022-11-15T05:06:18;7.60;99.90
52181;DHT22;38158;53.338;6.514;2022-11-15T05:08:44;7.60;99.90
52181;DHT22;38158;53.338;6.514;2022-11-15T05:11:10;7.60;99.90
52181;DHT22;38158;53.338;6.514;2022-11-15T05:13:35;7.60;99.90
52181;DHT22;38158;53.338;6.514;2022-11-15T05:16:01;7.60;99.90
52181;DHT22;38158;53.338;6.514;2022-11-15T05:18:27;7.60;99.90
52181;DHT22;38158;53.338;6.514;2022-11-15T05:20:52;7.70;99.90
52181;DHT22;38158;53.338;6.514;2022-11-15T05:23:18;7.70;99.90
52181;DHT22;38158;53.338;6.514;2022-11-15T05:25:43;7.70;99.90
52181;DHT22;38158;53.338;6.514;2022-11-15T05:28:09;7.80;99.90
52181;DHT22;38158;53.338;6.514;2022-11-15T05:30:35;7.80;99.90
52181;DHT22;38158;53.338;6.514;2022-11-15T05:33:00;7.80;99.90
52181;DHT22;38158;53.338;6.514;2022-11-15T05:35:34;7.80;99.90
52181;DHT22;38158;53.338;6.514;2022-11-15T05:38:01;7.80;99.90
52181;DHT22;38158;53.338;6.514;2022-11-15T05:40:27;7.90;99.90
52181;DHT22;38158;53.338;6.514;2022-11-15T05:42:53;7.90;99.90
52181;DHT22;38158;53.338;6.514;2022-11-15T05:45:19;7.90;99.90
52181;DHT22;38158;53.338;6.514;2022-11-15T05:47:46;7.90;99.90
52181;DHT22;38158;53.338;6.514;2022-11-15T05:50:13;7.90;99.90
52181;DHT22;38158;53.338;6.514;2022-11-15T05:52:40;8.00;99.90
52181;DHT22;38158;53.338;6.514;2022-11-15T05:55:07;8.00;99.90
52181;DHT22;38158;53.338;6.514;2022-11-15T05:57:34;8.00;99.90
52181;DHT22;38158;53.338;6.514;2022-11-15T05:59:59;8.00;99.90
52181;DHT22;38158;53.338;6.514;2022-11-15T06:02:25;8.10;99.90
52181;DHT22;38158;53.338;6.514;2022-11-15T06:04:51;8.10;99.90
52181;DHT22;38158;53.338;6.514;2022-11-15T06:07:16;8.10;99.90
52181;DHT22;38158;53.338;6.514;2022-11-15T06:09:42;8.10;99.90
52181;DHT22;38158;53.338;6.514;2022-11-15T06:12:08;8.20;99.90
52181;DHT22;38158;53.338;6.514;2022-11-15T06:14:33;8.20;99.90
52181;DHT22;38158;53.338;6.514;2022-11-15T06:16:59;8.30;99.90
52181;DHT22;38158;53.338;6.514;2022-11-15T06:19:24;8.30;99.90
52181;DHT22;38158;53.338;6.514;2022-11-15T06:21:50;8.30;99.90
52181;DHT22;38158;53.338;6.514;2022-11-15T06:24:16;8.30;99.90
52181;DHT22;38158;53.338;6.514;2022-11-15T06:26:41;8.30;99.90
52181;DHT22;38158;53.338;6.514;2022-11-15T06:29:07;8.30;99.90
52181;DHT22;38158;53.338;6.514;2022-11-15T06:31:34;8.30;99.90
52181;DHT22;38158;53.338;6.514;2022-11-15T06:33:59;8.40;99.90
52181;DHT22;38158;53.338;6.514;2022-11-15T06:36:25;8.40;99.90
52181;DHT22;38158;53.338;6.514;2022-11-15T06:38:51;8.40;99.90
52181;DHT22;38158;53.338;6.514;2022-11-15T06:41:16;8.40;99.90
52181;DHT22;38158;53.338;6.514;2022-11-15T06:43:43;8.40;99.90
52181;DHT22;38158;53.338;6.514;2022-11-15T06:46:09;8.40;99.90
52181;DHT22;38158;53.338;6.514;2022-11-15T06:48:35;8.50;99.90
52181;DHT22;38158;53.338;6.514;2022-11-15T06:51:03;8.50;99.90
52181;DHT22;38158;53.338;6.514;2022-11-15T06:53:29;8.50;99.90
52181;DHT22;38158;53.338;6.514;2022-11-15T06:56:03;8.50;99.90
52181;DHT22;38158;53.338;6.514;2022-11-15T06:58:30;8.50;99.90
52181;DHT22;38158;53.338;6.514;2022-11-15T07:01:07;8.50;99.90
52181;DHT22;38158;53.338;6.514;2022-11-15T07:03:35;8.50;99.90
52181;DHT22;38158;53.338;6.514;2022-11-15T07:06:01;8.60;99.90
52181;DHT22;38158;53.338;6.514;2022-11-15T07:08:28;8.70;99.90
52181;DHT22;38158;53.338;6.514;2022-11-15T07:10:55;8.60;99.90
52181;DHT22;38158;53.338;6.514;2022-11-15T07:13:26;8.60;99.90
52181;DHT22;38158;53.338;6.514;2022-11-15T07:15:52;8.60;99.90
52181;DHT22;38158;53.338;6.514;2022-11-15T07:18:18;8.70;99.90
52181;DHT22;38158;53.338;6.514;2022-11-15T07:20:44;8.70;99.90
52181;DHT22;38158;53.338;6.514;2022-11-15T07:23:10;8.70;99.90
52181;DHT22;38158;53.338;6.514;2022-11-15T07:25:35;8.80;99.90
52181;DHT22;38158;53.338;6.514;2022-11-15T07:28:01;8.80;99.90
52181;DHT22;38158;53.338;6.514;2022-11-15T07:30:27;8.80;99.90
52181;DHT22;38158;53.338;6.514;2022-11-15T07:32:57;8.80;99.90
52181;DHT22;38158;53.338;6.514;2022-11-15T07:35:24;8.90;99.90
52181;DHT22;38158;53.338;6.514;2022-11-15T07:38:09;9.00;99.90
52181;DHT22;38158;53.338;6.514;2022-11-15T07:40:34;9.00;99.90
52181;DHT22;38158;53.338;6.514;2022-11-15T07:43:01;9.10;99.90
52181;DHT22;38158;53.338;6.514;2022-11-15T07:45:27;9.20;99.90
52181;DHT22;38158;53.338;6.514;2022-11-15T07:47:53;9.30;99.90
52181;DHT22;38158;53.338;6.514;2022-11-15T07:50:19;9.30;99.90
52181;DHT22;38158;53.338;6.514;2022-11-15T07:52:45;9.40;99.90
52181;DHT22;38158;53.338;6.514;2022-11-15T07:55:11;9.40;99.90
52181;DHT22;38158;53.338;6.514;2022-11-15T07:57:36;9.40;99.90
52181;DHT22;38158;53.338;6.514;2022-11-15T08:00:03;9.50;99.90
52181;DHT22;38158;53.338;6.514;2022-11-15T08:02:30;9.50;99.90
52181;DHT22;38158;53.338;6.514;2022-11-15T08:04:55;9.50;99.90
52181;DHT22;38158;53.338;6.514;2022-11-15T08:07:21;9.60;99.90
52181;DHT22;38158;53.338;6.514;2022-11-15T08:09:47;9.60;99.90
52181;DHT22;38158;53.338;6.514;2022-11-15T08:12:12;9.60;99.90
52181;DHT22;38158;53.338;6.514;2022-11-15T08:14:39;9.60;99.90
52181;DHT22;38158;53.338;6.514;2022-11-15T08:17:05;9.70;99.90
52181;DHT22;38158;53.338;6.514;2022-11-15T08:19:30;9.70;99.90
52181;DHT22;38158;53.338;6.514;2022-11-15T08:21:56;9.70;99.90
52181;DHT22;38158;53.338;6.514;2022-11-15T08:24:21;9.80;99.90
52181;DHT22;38158;53.338;6.514;2022-11-15T08:26:47;9.80;99.90
52181;DHT22;38158;53.338;6.514;2022-11-15T08:29:13;9.80;99.90
52181;DHT22;38158;53.338;6.514;2022-11-15T08:31:38;9.80;99.90
52181;DHT22;38158;53.338;6.514;2022-11-15T08:34:05;9.80;99.90
52181;DHT22;38158;53.338;6.514;2022-11-15T08:36:31;9.90;99.90
52181;DHT22;38158;53.338;6.514;2022-11-15T08:38:57;9.90;99.90
52181;DHT22;38158;53.338;6.514;2022-11-15T08:41:41;9.90;99.90
52181;DHT22;38158;53.338;6.514;2022-11-15T08:44:07;9.90;99.90
52181;DHT22;38158;53.338;6.514;2022-11-15T08:46:32;10.00;99.90
52181;DHT22;38158;53.338;6.514;2022-11-15T08:48:58;10.00;99.90
52181;DHT22;38158;53.338;6.514;2022-11-15T08:51:23;10.10;99.90
52181;DHT22;38158;53.338;6.514;2022-11-15T08:53:49;10.10;99.90
52181;DHT22;38158;53.338;6.514;2022-11-15T08:56:15;10.20;99.90
52181;DHT22;38158;53.338;6.514;2022-11-15T08:58:41;10.30;99.90
52181;DHT22;38158;53.338;6.514;2022-11-15T09:01:15;10.30;99.90
52181;DHT22;38158;53.338;6.514;2022-11-15T09:03:41;10.30;99.90
52181;DHT22;38158;53.338;6.514;2022-11-15T09:06:07;10.40;99.90
52181;DHT22;38158;53.338;6.514;2022-11-15T09:08:32;10.40;99.90
52181;DHT22;38158;53.338;6.514;2022-11-15T09:10:58;10.40;99.90
52181;DHT22;38158;53.338;6.514;2022-11-15T09:13:24;10.40;99.90
52181;DHT22;38158;53.338;6.514;2022-11-15T09:15:49;10.40;99.90
52181;DHT22;38158;53.338;6.514;2022-11-15T09:18:15;10.50;99.90
52181;DHT22;38158;53.338;6.514;2022-11-15T09:20:41;10.50;99.90
52181;DHT22;38158;53.338;6.514;2022-11-15T09:23:07;10.50;99.90
52181;DHT22;38158;53.338;6.514;2022-11-15T09:25:33;9.70;99.90
52181;DHT22;38158;53.338;6.514;2022-11-15T09:27:58;10.60;99.90
52181;DHT22;38158;53.338;6.514;2022-11-15T09:30:25;10.60;99.90
52181;DHT22;38158;53.338;6.514;2022-11-15T09:32:51;10.70;99.90
52181;DHT22;38158;53.338;6.514;2022-11-15T09:35:16;10.70;99.90
52181;DHT22;38158;53.338;6.514;2022-11-15T09:37:42;10.70;99.90
52181;DHT22;38158;53.338;6.514;2022-11-15T09:40:13;10.80;99.90
52181;DHT22;38158;53.338;6.514;2022-11-15T09:45:23;10.80;99.90
52181;DHT22;38158;53.338;6.514;2022-11-15T09:50:48;10.80;99.90
52181;DHT22;38158;53.338;6.514;2022-11-15T09:53:24;10.80;99.90
52181;DHT22;38158;53.338;6.514;2022-11-15T09:56:02;10.90;99.90
52181;DHT22;38158;53.338;6.514;2022-11-15T10:01:20;10.90;99.90
52181;DHT22;38158;53.338;6.514;2022-11-15T10:03:48;10.90;99.90
52181;DHT22;38158;53.338;6.514;2022-11-15T10:06:25;11.00;99.90
52181;DHT22;38158;53.338;6.514;2022-11-15T10:11:30;11.00;99.90
52181;DHT22;38158;53.338;6.514;2022-11-15T10:14:02;11.10;99.90
52181;DHT22;38158;53.338;6.514;2022-11-15T10:24:26;11.30;99.90
52181;DHT22;38158;53.338;6.514;2022-11-15T10:26:56;11.40;99.90
52181;DHT22;38158;53.338;6.514;2022-11-15T10:29:23;11.40;99.90
52181;DHT22;38158;53.338;6.514;2022-11-15T10:31:49;11.40;99.90
52181;DHT22;38158;53.338;6.514;2022-11-15T10:34:20;11.40;99.90
52181;DHT22;38158;53.338;6.514;2022-11-15T10:36:53;11.40;99.90
52181;DHT22;38158;53.338;6.514;2022-11-15T10:39:19;11.40;99.90
52181;DHT22;38158;53.338;6.514;2022-11-15T10:41:45;11.40;99.90
52181;DHT22;38158;53.338;6.514;2022-11-15T10:49:14;11.50;99.90
52181;DHT22;38158;53.338;6.514;2022-11-15T10:54:34;11.50;99.90
52181;DHT22;38158;53.338;6.514;2022-11-15T10:57:06;11.60;99.90
52181;DHT22;38158;53.338;6.514;2022-11-15T10:59:36;11.60;99.90
52181;DHT22;38158;53.338;6.514;2022-11-15T11:02:02;11.60;99.90
52181;DHT22;38158;53.338;6.514;2022-11-15T11:04:50;11.60;99.90
52181;DHT22;38158;53.338;6.514;2022-11-15T11:07:25;11.70;99.90
52181;DHT22;38158;53.338;6.514;2022-11-15T11:12:32;11.70;99.90
52181;DHT22;38158;53.338;6.514;2022-11-15T11:15:08;11.70;99.90
52181;DHT22;38158;53.338;6.514;2022-11-15T11:20:45;11.60;99.90
52181;DHT22;38158;53.338;6.514;2022-11-15T11:26:11;11.70;99.90
52181;DHT22;38158;53.338;6.514;2022-11-15T11:29:07;11.70;99.90
52181;DHT22;38158;53.338;6.514;2022-11-15T11:31:59;11.70;99.90
52181;DHT22;38158;53.338;6.514;2022-11-15T11:37:17;11.80;99.90
52181;DHT22;38158;53.338;6.514;2022-11-15T11:40:13;11.80;99.90
52181;DHT22;38158;53.338;6.514;2022-11-15T11:48:39;12.00;99.90
52181;DHT22;38158;53.338;6.514;2022-11-15T11:51:07;12.00;99.90
52181;DHT22;38158;53.338;6.514;2022-11-15T11:53:46;12.00;99.90
52181;DHT22;38158;53.338;6.514;2022-11-15T11:56:22;12.10;99.90
52181;DHT22;38158;53.338;6.514;2022-11-15T11:58:50;12.10;99.90
52181;DHT22;38158;53.338;6.514;2022-11-15T12:01:33;12.20;99.90
52181;DHT22;38158;53.338;6.514;2022-11-15T12:04:20;12.20;99.90
52181;DHT22;38158;53.338;6.514;2022-11-15T12:07:00;12.40;99.90
52181;DHT22;38158;53.338;6.514;2022-11-15T12:17:07;12.50;99.90
52181;DHT22;38158;53.338;6.514;2022-11-15T12:19:32;12.50;99.90
52181;DHT22;38158;53.338;6.514;2022-11-15T12:22:19;12.60;99.90
52181;DHT22;38158;53.338;6.514;2022-11-15T12:25:08;12.60;99.90
52181;DHT22;38158;53.338;6.514;2022-11-15T12:30:15;12.50;99.90
52181;DHT22;38158;53.338;6.514;2022-11-15T12:32:59;12.50;99.90
52181;DHT22;38158;53.338;6.514;2022-11-15T12:35:38;12.50;99.90
52181;DHT22;38158;53.338;6.514;2022-11-15T12:38:04;12.50;99.90
52181;DHT22;38158;53.338;6.514;2022-11-15T12:40:36;12.40;99.90
52181;DHT22;38158;53.338;6.514;2022-11-15T12:43:50;12.40;99.90
52181;DHT22;38158;53.338;6.514;2022-11-15T12:45:51;12.30;99.90
52181;DHT22;38158;53.338;6.514;2022-11-15T13:01:09;12.30;99.90
52181;DHT22;38158;53.338;6.514;2022-11-15T13:03:35;12.20;99.90
52181;DHT22;38158;53.338;6.514;2022-11-15T13:12:10;12.10;99.90
52181;DHT22;38158;53.338;6.514;2022-11-15T13:14:44;12.10;99.90
52181;DHT22;38158;53.338;6.514;2022-11-15T13:19:58;12.20;99.90
52181;DHT22;38158;53.338;6.514;2022-11-15T13:22:25;12.30;99.90
52181;DHT22;38158;53.338;6.514;2022-11-15T13:30:51;12.70;99.90
52181;DHT22;38158;53.338;6.514;2022-11-15T13:33:24;12.70;99.90
52181;DHT22;38158;53.338;6.514;2022-11-15T13:35:53;12.60;99.90
52181;DHT22;38158;53.338;6.514;2022-11-15T13:38:30;12.60;99.90
52181;DHT22;38158;53.338;6.514;2022-11-15T13:40:58;12.70;99.90
52181;DHT22;38158;53.338;6.514;2022-11-15T13:43:36;12.70;99.90
52181;DHT22;38158;53.338;6.514;2022-11-15T13:46:21;12.60;99.90
52181;DHT22;38158;53.338;6.514;2022-11-15T13:48:53;12.50;99.90
52181;DHT22;38158;53.338;6.514;2022-11-15T13:59:35;12.10;99.90
52181;DHT22;38158;53.338;6.514;2022-11-15T14:02:20;12.10;99.90
52181;DHT22;38158;53.338;6.514;2022-11-15T14:04:56;12.00;99.90
52181;DHT22;38158;53.338;6.514;2022-11-15T14:07:25;11.90;99.90
52181;DHT22;38158;53.338;6.514;2022-11-15T14:09:52;11.90;99.90
52181;DHT22;38158;53.338;6.514;2022-11-15T14:14:50;11.70;99.90
52181;DHT22;38158;53.338;6.514;2022-11-15T14:17:20;11.70;99.90
52181;DHT22;38158;53.338;6.514;2022-11-15T14:19:46;11.60;99.90
52181;DHT22;38158;53.338;6.514;2022-11-15T14:24:38;11.50;99.90
52181;DHT22;38158;53.338;6.514;2022-11-15T14:27:36;11.50;99.90
52181;DHT22;38158;53.338;6.514;2022-11-15T14:30:03;11.40;99.90
52181;DHT22;38158;53.338;6.514;2022-11-15T14:32:39;11.40;99.90
52181;DHT22;38158;53.338;6.514;2022-11-15T14:35:13;11.30;99.90
52181;DHT22;38158;53.338;6.514;2022-11-15T14:37:39;11.30;99.90
52181;DHT22;38158;53.338;6.514;2022-11-15T14:40:06;11.30;99.90
52181;DHT22;38158;53.338;6.514;2022-11-15T14:42:33;11.20;99.90
52181;DHT22;38158;53.338;6.514;2022-11-15T14:44:58;11.20;99.90
52181;DHT22;38158;53.338;6.514;2022-11-15T14:47:24;11.10;99.90
52181;DHT22;38158;53.338;6.514;2022-11-15T14:49:50;11.10;99.90
52181;DHT22;38158;53.338;6.514;2022-11-15T14:54:54;11.00;99.90
52181;DHT22;38158;53.338;6.514;2022-11-15T14:57:20;10.90;99.90
52181;DHT22;38158;53.338;6.514;2022-11-15T14:59:45;10.90;99.90
52181;DHT22;38158;53.338;6.514;2022-11-15T15:02:23;10.80;99.90
52181;DHT22;38158;53.338;6.514;2022-11-15T15:04:49;10.80;99.90
52181;DHT22;38158;53.338;6.514;2022-11-15T15:07:16;10.80;99.90
52181;DHT22;38158;53.338;6.514;2022-11-15T15:09:42;10.70;99.90
52181;DHT22;38158;53.338;6.514;2022-11-15T15:12:20;10.70;99.90
52181;DHT22;38158;53.338;6.514;2022-11-15T15:14:47;10.70;99.90
52181;DHT22;38158;53.338;6.514;2022-11-15T15:17:13;10.60;99.90
52181;DHT22;38158;53.338;6.514;2022-11-15T15:19:39;10.60;99.90
52181;DHT22;38158;53.338;6.514;2022-11-15T15:22:05;10.60;99.90
52181;DHT22;38158;53.338;6.514;2022-11-15T15:24:31;10.50;99.90
52181;DHT22;38158;53.338;6.514;2022-11-15T15:26:57;10.50;99.90
52181;DHT22;38158;53.338;6.514;2022-11-15T15:29:22;10.50;99.90
52181;DHT22;38158;53.338;6.514;2022-11-15T15:31:48;10.40;99.90
52181;DHT22;38158;53.338;6.514;2022-11-15T15:34:13;10.40;99.90
52181;DHT22;38158;53.338;6.514;2022-11-15T15:36:39;10.30;99.90
52181;DHT22;38158;53.338;6.514;2022-11-15T15:39:07;10.30;99.90
52181;DHT22;38158;53.338;6.514;2022-11-15T15:41:33;10.20;99.90
52181;DHT22;38158;53.338;6.514;2022-11-15T15:43:59;10.10;99.90
52181;DHT22;38158;53.338;6.514;2022-11-15T15:46:25;10.10;99.90
52181;DHT22;38158;53.338;6.514;2022-11-15T15:48:50;10.00;99.90
52181;DHT22;38158;53.338;6.514;2022-11-15T15:51:16;10.00;99.90
52181;DHT22;38158;53.338;6.514;2022-11-15T15:53:42;10.10;99.90
52181;DHT22;38158;53.338;6.514;2022-11-15T15:56:08;9.90;99.90
52181;DHT22;38158;53.338;6.514;2022-11-15T15:58:34;9.90;99.90
52181;DHT22;38158;53.338;6.514;2022-11-15T16:01:00;9.80;99.90
52181;DHT22;38158;53.338;6.514;2022-11-15T16:03:26;9.80;99.90
52181;DHT22;38158;53.338;6.514;2022-11-15T16:05:53;9.80;99.90
52181;DHT22;38158;53.338;6.514;2022-11-15T16:08:23;9.80;99.90
52181;DHT22;38158;53.338;6.514;2022-11-15T16:10:49;9.70;99.90
52181;DHT22;38158;53.338;6.514;2022-11-15T16:13:15;9.70;99.90
52181;DHT22;38158;53.338;6.514;2022-11-15T16:15:42;9.70;99.90
52181;DHT22;38158;53.338;6.514;2022-11-15T16:18:15;9.70;99.90
52181;DHT22;38158;53.338;6.514;2022-11-15T16:20:48;9.60;99.90
52181;DHT22;38158;53.338;6.514;2022-11-15T16:23:21;9.60;99.90
52181;DHT22;38158;53.338;6.514;2022-11-15T16:25:54;9.60;99.90
52181;DHT22;38158;53.338;6.514;2022-11-15T16:28:25;9.50;99.90
52181;DHT22;38158;53.338;6.514;2022-11-15T16:31:11;9.50;99.90
52181;DHT22;38158;53.338;6.514;2022-11-15T16:33:38;9.50;99.90
52181;DHT22;38158;53.338;6.514;2022-11-15T16:36:06;9.40;99.90
52181;DHT22;38158;53.338;6.514;2022-11-15T16:38:32;9.40;99.90
52181;DHT22;38158;53.338;6.514;2022-11-15T16:40:58;9.40;99.90
52181;DHT22;38158;53.338;6.514;2022-11-15T16:43:23;9.40;99.90
52181;DHT22;38158;53.338;6.514;2022-11-15T16:45:49;9.40;99.90
52181;DHT22;38158;53.338;6.514;2022-11-15T16:48:26;9.30;99.90
52181;DHT22;38158;53.338;6.514;2022-11-15T16:50:59;9.40;99.90
52181;DHT22;38158;53.338;6.514;2022-11-15T16:53:26;9.30;99.90
52181;DHT22;38158;53.338;6.514;2022-11-15T16:55:53;9.40;99.90
52181;DHT22;38158;53.338;6.514;2022-11-15T16:58:19;9.40;99.90
52181;DHT22;38158;53.338;6.514;2022-11-15T17:00:48;9.40;99.90
52181;DHT22;38158;53.338;6.514;2022-11-15T17:03:15;9.50;99.90
52181;DHT22;38158;53.338;6.514;2022-11-15T17:05:40;9.50;99.90
52181;DHT22;38158;53.338;6.514;2022-11-15T17:08:07;9.60;99.90
52181;DHT22;38158;53.338;6.514;2022-11-15T17:10:33;9.60;99.90
52181;DHT22;38158;53.338;6.514;2022-11-15T17:12:58;9.70;99.90
52181;DHT22;38158;53.338;6.514;2022-11-15T17:15:24;9.70;99.90
52181;DHT22;38158;53.338;6.514;2022-11-15T17:17:53;9.70;99.90
52181;DHT22;38158;53.338;6.514;2022-11-15T17:20:21;9.80;99.90
52181;DHT22;38158;53.338;6.514;2022-11-15T17:22:47;9.80;99.90
52181;DHT22;38158;53.338;6.514;2022-11-15T17:25:13;9.80;99.90
52181;DHT22;38158;53.338;6.514;2022-11-15T17:27:39;9.90;99.90
52181;DHT22;38158;53.338;6.514;2022-11-15T17:30:06;9.90;99.90
52181;DHT22;38158;53.338;6.514;2022-11-15T17:32:35;9.90;99.90
52181;DHT22;38158;53.338;6.514;2022-11-15T17:35:02;10.00;99.90
52181;DHT22;38158;53.338;6.514;2022-11-15T17:37:27;9.90;99.90
52181;DHT22;38158;53.338;6.514;2022-11-15T17:39:53;10.00;99.90
52181;DHT22;38158;53.338;6.514;2022-11-15T17:42:19;10.00;99.90
52181;DHT22;38158;53.338;6.514;2022-11-15T17:44:44;10.00;99.90
52181;DHT22;38158;53.338;6.514;2022-11-15T17:47:10;10.00;99.90
52181;DHT22;38158;53.338;6.514;2022-11-15T17:49:36;10.00;99.90
52181;DHT22;38158;53.338;6.514;2022-11-15T17:52:05;10.00;99.90
52181;DHT22;38158;53.338;6.514;2022-11-15T17:54:31;10.10;99.90